KGTF/GTF METAR and TAF weather

Enter ICAO airport designator
Station Type Date Time Source
KGTF METAR 2019/04/23 03:53 UTC NOAA

KGTF 230353Z 22013KT 10SM CLR 12/02 A2998 RMK AO2 SLP151 T01170017


Station Type Date Time Source
KGTF Decoded METAR 2019/04/23 03:53 UTC NOAA

GREAT FALLS INTERNATIONAL, MT, United States (KGTF) 47-28N 111-23W 1119M
Apr 22, 2019 - 11:53 PM EDT / 2019.04.23 0353 UTC
Wind: from the SW (220 degrees) at 15 MPH (13 KT):0
Visibility: 10 mile(s):0
Sky conditions: clear
Temperature: 53.1 F (11.7 C)
Dew Point: 35.1 F (1.7 C)
Relative Humidity: 50%
Pressure (altimeter): 29.98 in. Hg (1015 hPa)
ob: KGTF 230353Z 22013KT 10SM CLR 12/02 A2998 RMK AO2 SLP151 T01170017
cycle: 4

Station Type Date Time Source
KGTF TAF 2019/04/22 20:34 UTC NOAA

TAF
AMD KGTF 221932Z 2220/2318 22012G22KT P6SM FEW150 SCT250
FM230100 23012KT P6SM SCT150 BKN250
FM230600 23015KT P6SM SCT080 BKN100
FM231400 22015G25KT P6SM SCT050 BKN080 OVC100

Example: see airport list